sensor_id;sensor_type;location;lat;lon;timestamp;temperature;humidity
32895;DHT22;19251;49.484;8.260;2023-01-30T00:03:23;4.60;22.10
32895;DHT22;19251;49.484;8.260;2023-01-30T00:08:26;4.60;22.10
32895;DHT22;19251;49.484;8.260;2023-01-30T00:13:28;4.60;22.00
32895;DHT22;19251;49.484;8.260;2023-01-30T00:18:30;4.70;22.00
32895;DHT22;19251;49.484;8.260;2023-01-30T00:23:32;4.70;21.90
32895;DHT22;19251;49.484;8.260;2023-01-30T00:28:35;4.80;22.30
32895;DHT22;19251;49.484;8.260;2023-01-30T00:33:37;4.80;22.20
32895;DHT22;19251;49.484;8.260;2023-01-30T00:38:40;4.80;22.10
32895;DHT22;19251;49.484;8.260;2023-01-30T00:43:42;4.80;22.10
32895;DHT22;19251;49.484;8.260;2023-01-30T00:49:03;4.90;21.90
32895;DHT22;19251;49.484;8.260;2023-01-30T00:54:05;4.90;22.00
32895;DHT22;19251;49.484;8.260;2023-01-30T00:59:07;5.00;22.40
32895;DHT22;19251;49.484;8.260;2023-01-30T01:04:10;5.00;22.20
32895;DHT22;19251;49.484;8.260;2023-01-30T01:09:12;5.00;22.60
32895;DHT22;19251;49.484;8.260;2023-01-30T01:14:14;5.00;22.60
32895;DHT22;19251;49.484;8.260;2023-01-30T01:19:16;5.00;22.60
32895;DHT22;19251;49.484;8.260;2023-01-30T01:24:18;5.00;22.30
32895;DHT22;19251;49.484;8.260;2023-01-30T01:29:20;5.00;22.80
32895;DHT22;19251;49.484;8.260;2023-01-30T01:34:22;5.00;22.70
32895;DHT22;19251;49.484;8.260;2023-01-30T01:39:24;4.80;22.70
32895;DHT22;19251;49.484;8.260;2023-01-30T01:45:09;4.90;22.80
32895;DHT22;19251;49.484;8.260;2023-01-30T01:55:17;4.90;22.70
32895;DHT22;19251;49.484;8.260;2023-01-30T02:00:21;4.90;22.90
32895;DHT22;19251;49.484;8.260;2023-01-30T02:05:26;4.90;22.60
32895;DHT22;19251;49.484;8.260;2023-01-30T02:15:49;4.90;22.70
32895;DHT22;19251;49.484;8.260;2023-01-30T02:21:03;4.80;22.80
32895;DHT22;19251;49.484;8.260;2023-01-30T02:26:12;4.90;22.70
32895;DHT22;19251;49.484;8.260;2023-01-30T02:31:22;4.90;22.90
32895;DHT22;19251;49.484;8.260;2023-01-30T02:41:36;4.90;23.00
32895;DHT22;19251;49.484;8.260;2023-01-30T02:51:48;4.80;22.90
32895;DHT22;19251;49.484;8.260;2023-01-30T02:56:52;4.80;23.00
32895;DHT22;19251;49.484;8.260;2023-01-30T03:17:52;4.80;22.80
32895;DHT22;19251;49.484;8.260;2023-01-30T03:22:55;4.80;23.00
32895;DHT22;19251;49.484;8.260;2023-01-30T03:27:58;4.90;23.00
32895;DHT22;19251;49.484;8.260;2023-01-30T03:33:02;4.90;23.50
32895;DHT22;19251;49.484;8.260;2023-01-30T03:38:04;4.90;23.00
32895;DHT22;19251;49.484;8.260;2023-01-30T03:43:06;5.00;23.20
32895;DHT22;19251;49.484;8.260;2023-01-30T03:48:09;5.00;23.60
32895;DHT22;19251;49.484;8.260;2023-01-30T03:53:12;5.00;23.70
32895;DHT22;19251;49.484;8.260;2023-01-30T03:58:14;5.00;23.60
32895;DHT22;19251;49.484;8.260;2023-01-30T04:03:16;5.00;23.80
32895;DHT22;19251;49.484;8.260;2023-01-30T04:08:18;5.10;23.40
32895;DHT22;19251;49.484;8.260;2023-01-30T04:13:20;5.30;23.70
32895;DHT22;19251;49.484;8.260;2023-01-30T04:18:23;5.00;24.00
32895;DHT22;19251;49.484;8.260;2023-01-30T04:23:25;5.00;23.60
32895;DHT22;19251;49.484;8.260;2023-01-30T04:28:27;5.00;23.90
32895;DHT22;19251;49.484;8.260;2023-01-30T04:33:30;5.00;24.20
32895;DHT22;19251;49.484;8.260;2023-01-30T04:38:37;5.00;23.90
32895;DHT22;19251;49.484;8.260;2023-01-30T04:43:39;5.10;23.80
32895;DHT22;19251;49.484;8.260;2023-01-30T04:48:45;5.10;23.90
32895;DHT22;19251;49.484;8.260;2023-01-30T04:53:47;5.20;24.00
32895;DHT22;19251;49.484;8.260;2023-01-30T04:58:49;5.20;23.90
32895;DHT22;19251;49.484;8.260;2023-01-30T05:03:53;6.20;25.90
32895;DHT22;19251;49.484;8.260;2023-01-30T05:08:55;5.40;24.60
32895;DHT22;19251;49.484;8.260;2023-01-30T05:13:58;5.10;24.30
32895;DHT22;19251;49.484;8.260;2023-01-30T05:19:00;5.20;24.00
32895;DHT22;19251;49.484;8.260;2023-01-30T05:24:02;5.10;24.50
32895;DHT22;19251;49.484;8.260;2023-01-30T05:29:04;5.20;24.20
32895;DHT22;19251;49.484;8.260;2023-01-30T05:34:08;5.20;24.10
32895;DHT22;19251;49.484;8.260;2023-01-30T05:39:12;5.20;24.10
32895;DHT22;19251;49.484;8.260;2023-01-30T05:44:15;5.20;24.20
32895;DHT22;19251;49.484;8.260;2023-01-30T05:49:18;5.30;24.30
32895;DHT22;19251;49.484;8.260;2023-01-30T05:54:21;5.30;24.40
32895;DHT22;19251;49.484;8.260;2023-01-30T05:59:23;5.40;24.90
32895;DHT22;19251;49.484;8.260;2023-01-30T06:04:25;5.40;24.70
32895;DHT22;19251;49.484;8.260;2023-01-30T06:09:27;5.40;25.10
32895;DHT22;19251;49.484;8.260;2023-01-30T06:14:29;5.50;25.10
32895;DHT22;19251;49.484;8.260;2023-01-30T06:19:31;5.60;25.10
32895;DHT22;19251;49.484;8.260;2023-01-30T06:24:33;5.80;25.20
32895;DHT22;19251;49.484;8.260;2023-01-30T06:29:35;5.60;25.10
32895;DHT22;19251;49.484;8.260;2023-01-30T06:34:37;5.60;24.60
32895;DHT22;19251;49.484;8.260;2023-01-30T06:39:39;5.50;24.60
32895;DHT22;19251;49.484;8.260;2023-01-30T06:44:41;5.60;25.20
32895;DHT22;19251;49.484;8.260;2023-01-30T06:49:43;5.70;25.00
32895;DHT22;19251;49.484;8.260;2023-01-30T06:54:45;5.70;25.40
32895;DHT22;19251;49.484;8.260;2023-01-30T06:59:47;5.70;25.20
32895;DHT22;19251;49.484;8.260;2023-01-30T07:04:49;5.70;25.40
32895;DHT22;19251;49.484;8.260;2023-01-30T07:09:51;5.60;25.40
32895;DHT22;19251;49.484;8.260;2023-01-30T07:15:09;5.70;25.60
32895;DHT22;19251;49.484;8.260;2023-01-30T07:20:11;5.80;25.70
32895;DHT22;19251;49.484;8.260;2023-01-30T07:25:13;5.80;25.40
32895;DHT22;19251;49.484;8.260;2023-01-30T07:30:15;5.80;25.60
32895;DHT22;19251;49.484;8.260;2023-01-30T07:35:17;5.90;25.50
32895;DHT22;19251;49.484;8.260;2023-01-30T07:40:20;6.00;25.60
32895;DHT22;19251;49.484;8.260;2023-01-30T07:45:22;6.00;26.10
32895;DHT22;19251;49.484;8.260;2023-01-30T07:50:25;6.10;25.70
32895;DHT22;19251;49.484;8.260;2023-01-30T07:55:27;6.10;26.10
32895;DHT22;19251;49.484;8.260;2023-01-30T08:00:29;6.20;26.00
32895;DHT22;19251;49.484;8.260;2023-01-30T08:05:31;6.20;26.20
32895;DHT22;19251;49.484;8.260;2023-01-30T08:10:33;6.30;25.90
32895;DHT22;19251;49.484;8.260;2023-01-30T08:15:35;6.40;25.80
32895;DHT22;19251;49.484;8.260;2023-01-30T08:20:37;6.40;26.00
32895;DHT22;19251;49.484;8.260;2023-01-30T08:25:40;6.40;25.70
32895;DHT22;19251;49.484;8.260;2023-01-30T08:30:42;6.50;26.20
32895;DHT22;19251;49.484;8.260;2023-01-30T08:35:44;6.50;25.90
32895;DHT22;19251;49.484;8.260;2023-01-30T08:40:46;6.50;26.20
32895;DHT22;19251;49.484;8.260;2023-01-30T08:45:48;6.60;25.80
32895;DHT22;19251;49.484;8.260;2023-01-30T08:50:51;6.70;26.20
32895;DHT22;19251;49.484;8.260;2023-01-30T08:55:53;6.70;26.10
32895;DHT22;19251;49.484;8.260;2023-01-30T09:00:55;6.80;26.00
32895;DHT22;19251;49.484;8.260;2023-01-30T09:05:57;6.90;26.00
32895;DHT22;19251;49.484;8.260;2023-01-30T09:11:00;7.00;25.70
32895;DHT22;19251;49.484;8.260;2023-01-30T09:16:04;6.90;25.60
32895;DHT22;19251;49.484;8.260;2023-01-30T09:21:07;6.90;25.70
32895;DHT22;19251;49.484;8.260;2023-01-30T09:26:09;7.00;25.70
32895;DHT22;19251;49.484;8.260;2023-01-30T09:31:11;7.00;25.50
32895;DHT22;19251;49.484;8.260;2023-01-30T09:36:14;7.20;25.60
32895;DHT22;19251;49.484;8.260;2023-01-30T09:51:53;7.30;25.30
32895;DHT22;19251;49.484;8.260;2023-01-30T10:02:28;7.50;25.40
32895;DHT22;19251;49.484;8.260;2023-01-30T10:12:46;7.70;24.60
32895;DHT22;19251;49.484;8.260;2023-01-30T10:18:08;7.80;24.70
32895;DHT22;19251;49.484;8.260;2023-01-30T10:23:19;7.80;24.70
32895;DHT22;19251;49.484;8.260;2023-01-30T10:28:28;7.80;24.70
32895;DHT22;19251;49.484;8.260;2023-01-30T10:33:40;7.80;24.70
32895;DHT22;19251;49.484;8.260;2023-01-30T10:38:46;7.80;24.60
32895;DHT22;19251;49.484;8.260;2023-01-30T10:44:11;7.90;24.60
32895;DHT22;19251;49.484;8.260;2023-01-30T10:49:17;7.80;24.50
32895;DHT22;19251;49.484;8.260;2023-01-30T10:59:59;7.80;24.70
32895;DHT22;19251;49.484;8.260;2023-01-30T11:05:13;7.80;24.70
32895;DHT22;19251;49.484;8.260;2023-01-30T11:10:17;7.80;24.80
32895;DHT22;19251;49.484;8.260;2023-01-30T11:15:21;7.90;24.80
32895;DHT22;19251;49.484;8.260;2023-01-30T11:20:26;7.90;24.70
32895;DHT22;19251;49.484;8.260;2023-01-30T11:25:28;8.00;24.90
32895;DHT22;19251;49.484;8.260;2023-01-30T11:30:34;8.00;24.80
32895;DHT22;19251;49.484;8.260;2023-01-30T11:35:41;8.10;24.90
32895;DHT22;19251;49.484;8.260;2023-01-30T11:40:45;8.00;24.80
32895;DHT22;19251;49.484;8.260;2023-01-30T11:45:47;8.00;24.80
32895;DHT22;19251;49.484;8.260;2023-01-30T11:50:53;8.00;24.60
32895;DHT22;19251;49.484;8.260;2023-01-30T11:56:05;8.10;24.70
32895;DHT22;19251;49.484;8.260;2023-01-30T12:01:10;8.10;25.10
32895;DHT22;19251;49.484;8.260;2023-01-30T12:06:20;8.00;24.80
32895;DHT22;19251;49.484;8.260;2023-01-30T12:11:43;8.30;25.00
32895;DHT22;19251;49.484;8.260;2023-01-30T12:16:50;8.20;24.80
32895;DHT22;19251;49.484;8.260;2023-01-30T12:27:18;8.40;25.00
32895;DHT22;19251;49.484;8.260;2023-01-30T12:32:24;8.50;24.70
32895;DHT22;19251;49.484;8.260;2023-01-30T12:48:09;8.90;24.60
32895;DHT22;19251;49.484;8.260;2023-01-30T12:58:43;8.90;24.30
32895;DHT22;19251;49.484;8.260;2023-01-30T13:03:52;8.90;24.40
32895;DHT22;19251;49.484;8.260;2023-01-30T13:14:01;9.10;24.20
32895;DHT22;19251;49.484;8.260;2023-01-30T13:19:08;9.20;24.10
32895;DHT22;19251;49.484;8.260;2023-01-30T13:29:38;9.10;24.10
32895;DHT22;19251;49.484;8.260;2023-01-30T13:34:43;9.10;24.10
32895;DHT22;19251;49.484;8.260;2023-01-30T13:39:58;9.00;24.30
32895;DHT22;19251;49.484;8.260;2023-01-30T13:45:01;9.00;24.40
32895;DHT22;19251;49.484;8.260;2023-01-30T14:00:52;9.20;24.30
32895;DHT22;19251;49.484;8.260;2023-01-30T14:11:01;9.20;24.60
32895;DHT22;19251;49.484;8.260;2023-01-30T14:16:04;9.10;24.30
32895;DHT22;19251;49.484;8.260;2023-01-30T14:21:27;9.10;24.50
32895;DHT22;19251;49.484;8.260;2023-01-30T14:26:58;9.20;24.50
32895;DHT22;19251;49.484;8.260;2023-01-30T14:32:00;9.10;24.30
32895;DHT22;19251;49.484;8.260;2023-01-30T14:37:02;9.10;24.30
32895;DHT22;19251;49.484;8.260;2023-01-30T14:47:40;9.00;24.30
32895;DHT22;19251;49.484;8.260;2023-01-30T14:52:48;8.90;24.40
32895;DHT22;19251;49.484;8.260;2023-01-30T14:57:56;8.90;24.50
32895;DHT22;19251;49.484;8.260;2023-01-30T15:03:01;9.00;24.60
32895;DHT22;19251;49.484;8.260;2023-01-30T15:08:05;9.00;24.70
32895;DHT22;19251;49.484;8.260;2023-01-30T15:28:40;9.10;24.90
32895;DHT22;19251;49.484;8.260;2023-01-30T15:33:48;9.10;24.80
32895;DHT22;19251;49.484;8.260;2023-01-30T15:38:55;9.10;24.80
32895;DHT22;19251;49.484;8.260;2023-01-30T15:49:43;9.00;24.70
32895;DHT22;19251;49.484;8.260;2023-01-30T15:54:25;9.00;24.80
32895;DHT22;19251;49.484;8.260;2023-01-30T15:59:32;9.00;24.80
32895;DHT22;19251;49.484;8.260;2023-01-30T16:04:35;8.90;25.00
32895;DHT22;19251;49.484;8.260;2023-01-30T16:09:37;8.90;25.10
32895;DHT22;19251;49.484;8.260;2023-01-30T16:14:39;8.80;25.30
32895;DHT22;19251;49.484;8.260;2023-01-30T16:19:42;8.80;25.30
32895;DHT22;19251;49.484;8.260;2023-01-30T16:24:44;8.60;25.30
32895;DHT22;19251;49.484;8.260;2023-01-30T16:29:49;8.60;25.20
32895;DHT22;19251;49.484;8.260;2023-01-30T16:40:19;8.50;25.20
32895;DHT22;19251;49.484;8.260;2023-01-30T16:50:27;8.40;25.40
32895;DHT22;19251;49.484;8.260;2023-01-30T16:55:29;8.30;25.30
32895;DHT22;19251;49.484;8.260;2023-01-30T17:00:35;8.30;25.70
32895;DHT22;19251;49.484;8.260;2023-01-30T17:05:39;8.20;25.80
32895;DHT22;19251;49.484;8.260;2023-01-30T17:10:48;8.20;25.90
32895;DHT22;19251;49.484;8.260;2023-01-30T17:15:52;8.20;26.00
32895;DHT22;19251;49.484;8.260;2023-01-30T17:20:54;8.00;26.10
32895;DHT22;19251;49.484;8.260;2023-01-30T17:25:56;8.00;26.40
32895;DHT22;19251;49.484;8.260;2023-01-30T17:30:58;8.00;26.20
32895;DHT22;19251;49.484;8.260;2023-01-30T17:36:00;7.90;26.40
32895;DHT22;19251;49.484;8.260;2023-01-30T17:41:04;7.90;26.40
32895;DHT22;19251;49.484;8.260;2023-01-30T17:46:10;7.80;26.60
32895;DHT22;19251;49.484;8.260;2023-01-30T17:51:12;7.80;26.70
32895;DHT22;19251;49.484;8.260;2023-01-30T17:56:16;7.80;27.10
32895;DHT22;19251;49.484;8.260;2023-01-30T18:01:20;7.70;27.20
32895;DHT22;19251;49.484;8.260;2023-01-30T18:06:22;7.80;27.60
32895;DHT22;19251;49.484;8.260;2023-01-30T18:11:24;7.70;27.50
32895;DHT22;19251;49.484;8.260;2023-01-30T18:16:28;7.70;27.60
32895;DHT22;19251;49.484;8.260;2023-01-30T18:21:32;7.80;28.30
32895;DHT22;19251;49.484;8.260;2023-01-30T18:26:34;7.60;27.80
32895;DHT22;19251;49.484;8.260;2023-01-30T18:31:37;7.70;28.00
32895;DHT22;19251;49.484;8.260;2023-01-30T18:36:40;7.60;28.00
32895;DHT22;19251;49.484;8.260;2023-01-30T18:41:42;7.60;28.00
32895;DHT22;19251;49.484;8.260;2023-01-30T18:46:44;7.60;28.10
32895;DHT22;19251;49.484;8.260;2023-01-30T18:51:46;7.60;28.30
32895;DHT22;19251;49.484;8.260;2023-01-30T18:56:48;7.70;28.10
32895;DHT22;19251;49.484;8.260;2023-01-30T19:01:50;7.80;28.10
32895;DHT22;19251;49.484;8.260;2023-01-30T19:06:52;7.80;28.00
32895;DHT22;19251;49.484;8.260;2023-01-30T19:11:55;7.70;28.00
32895;DHT22;19251;49.484;8.260;2023-01-30T19:17:16;7.80;27.90
32895;DHT22;19251;49.484;8.260;2023-01-30T19:22:18;7.80;27.80
32895;DHT22;19251;49.484;8.260;2023-01-30T19:27:20;7.80;27.70
32895;DHT22;19251;49.484;8.260;2023-01-30T19:32:24;7.90;27.70
32895;DHT22;19251;49.484;8.260;2023-01-30T19:37:26;7.90;27.70
32895;DHT22;19251;49.484;8.260;2023-01-30T19:42:28;8.00;27.60
32895;DHT22;19251;49.484;8.260;2023-01-30T19:47:30;8.10;27.60
32895;DHT22;19251;49.484;8.260;2023-01-30T19:52:32;8.10;27.60
32895;DHT22;19251;49.484;8.260;2023-01-30T19:57:34;8.20;27.40
32895;DHT22;19251;49.484;8.260;2023-01-30T20:02:36;8.30;27.50
32895;DHT22;19251;49.484;8.260;2023-01-30T20:07:39;8.20;27.40
32895;DHT22;19251;49.484;8.260;2023-01-30T20:12:41;8.30;27.50
32895;DHT22;19251;49.484;8.260;2023-01-30T20:17:43;8.30;27.50
32895;DHT22;19251;49.484;8.260;2023-01-30T20:22:45;8.30;27.20
32895;DHT22;19251;49.484;8.260;2023-01-30T20:27:49;8.20;27.00
32895;DHT22;19251;49.484;8.260;2023-01-30T20:32:52;8.30;27.10
32895;DHT22;19251;49.484;8.260;2023-01-30T20:37:54;8.30;27.00
32895;DHT22;19251;49.484;8.260;2023-01-30T20:42:56;8.40;27.10
32895;DHT22;19251;49.484;8.260;2023-01-30T20:47:58;8.40;26.90
32895;DHT22;19251;49.484;8.260;2023-01-30T20:53:00;8.40;26.90
32895;DHT22;19251;49.484;8.260;2023-01-30T20:58:03;8.40;27.00
32895;DHT22;19251;49.484;8.260;2023-01-30T21:03:05;8.40;26.90
32895;DHT22;19251;49.484;8.260;2023-01-30T21:08:07;8.40;26.80
32895;DHT22;19251;49.484;8.260;2023-01-30T21:13:09;8.40;26.70
32895;DHT22;19251;49.484;8.260;2023-01-30T21:18:11;8.40;26.60
32895;DHT22;19251;49.484;8.260;2023-01-30T21:23:13;8.40;26.70
32895;DHT22;19251;49.484;8.260;2023-01-30T21:28:15;8.40;26.90
32895;DHT22;19251;49.484;8.260;2023-01-30T21:33:17;8.40;27.00
32895;DHT22;19251;49.484;8.260;2023-01-30T21:38:19;8.40;26.60
32895;DHT22;19251;49.484;8.260;2023-01-30T21:43:41;8.30;26.70
32895;DHT22;19251;49.484;8.260;2023-01-30T21:48:43;8.30;26.60
32895;DHT22;19251;49.484;8.260;2023-01-30T21:53:46;8.30;26.60
32895;DHT22;19251;49.484;8.260;2023-01-30T21:58:48;8.20;26.50
32895;DHT22;19251;49.484;8.260;2023-01-30T22:03:50;8.20;26.70
32895;DHT22;19251;49.484;8.260;2023-01-30T22:08:56;8.30;27.20
32895;DHT22;19251;49.484;8.260;2023-01-30T22:13:59;8.20;26.50
32895;DHT22;19251;49.484;8.260;2023-01-30T22:19:02;8.20;26.40
32895;DHT22;19251;49.484;8.260;2023-01-30T22:24:05;8.20;26.40
32895;DHT22;19251;49.484;8.260;2023-01-30T22:29:08;8.30;26.50
32895;DHT22;19251;49.484;8.260;2023-01-30T22:34:10;8.30;26.40
32895;DHT22;19251;49.484;8.260;2023-01-30T22:39:12;8.30;26.30
32895;DHT22;19251;49.484;8.260;2023-01-30T22:44:14;8.20;26.10
32895;DHT22;19251;49.484;8.260;2023-01-30T22:49:16;8.20;26.10
32895;DHT22;19251;49.484;8.260;2023-01-30T22:54:18;8.20;26.40
32895;DHT22;19251;49.484;8.260;2023-01-30T22:59:20;8.20;26.30
32895;DHT22;19251;49.484;8.260;2023-01-30T23:04:23;8.30;26.70
32895;DHT22;19251;49.484;8.260;2023-01-30T23:09:25;8.30;26.00
32895;DHT22;19251;49.484;8.260;2023-01-30T23:14:28;8.30;25.60
32895;DHT22;19251;49.484;8.260;2023-01-30T23:19:30;8.20;25.70
32895;DHT22;19251;49.484;8.260;2023-01-30T23:24:32;8.50;25.90
32895;DHT22;19251;49.484;8.260;2023-01-30T23:29:34;8.20;26.20
32895;DHT22;19251;49.484;8.260;2023-01-30T23:34:36;8.20;25.70
32895;DHT22;19251;49.484;8.260;2023-01-30T23:39:38;8.20;25.50
32895;DHT22;19251;49.484;8.260;2023-01-30T23:44:41;8.20;25.50
32895;DHT22;19251;49.484;8.260;2023-01-30T23:49:43;8.20;25.40
32895;DHT22;19251;49.484;8.260;2023-01-30T23:54:45;8.30;25.40
32895;DHT22;19251;49.484;8.260;2023-01-30T23:59:47;8.30;25.40
